KDPA/DPA METAR and TAF weather

Enter ICAO airport designator
Station Type Date Time Source
KDPA METAR 2019/12/13 00:52 UTC NOAA

KDPA 130052Z 19011KT 10SM OVC050 04/M02 A3005 RMK AO2 SLP184 T00441022


Station Type Date Time Source
KDPA Decoded METAR 2019/12/13 00:52 UTC NOAA

CHICAGO/WEST CH DUPAGE, IL, United States (KDPA) 41-54N 88-15W 230M
Dec 12, 2019 - 07:52 PM EST / 2019.12.13 0052 UTC
Wind: from the S (190 degrees) at 13 MPH (11 KT):0
Visibility: 10 mile(s):0
Sky conditions: overcast
Temperature: 39.9 F (4.4 C)
Dew Point: 28.0 F (-2.2 C)
Relative Humidity: 62%
Pressure (altimeter): 30.05 in. Hg (1017 hPa)
ob: KDPA 130052Z 19011KT 10SM OVC050 04/M02 A3005 RMK AO2 SLP184 T00441022
cycle: 1

Station Type Date Time Source
KDPA TAF 2019/12/12 18:45 UTC NOAA

TAF KDPA 121742Z 1218/1318 19018G31KT P6SM BKN090 BKN150 WS020/22052KT
FM122200 20014G25KT P6SM OVC060
FM130200 21012G19KT P6SM OVC050
FM130800 22006KT P6SM BKN035 OVC150
FM131700 20005KT P6SM SCT028 BKN150

Example: see airport list